Time;durP1;ratioP1;P1;durP2;ratioP2;P2;SDS_P1;SDS_P2;PMS_P1;PMS_P2;Temp;Humidity;BMP_temperature;BMP_pressure;BME280_temperature;BME280_humidity;BME280_pressure;Samples;Min_cycle;Max_cycle;Signal;HPM_P1;HPM_P2
2022/06/13 00:01:11;;;;;;;14.30;7.63;;;;;;;15.56;68.50;101490.16;5041565;28;20427;-74
2022/06/13 00:03:37;;;;;;;14.30;8.00;;;;;;;15.46;68.40;101486.66;5042014;28;20439;-74
2022/06/13 00:06:02;;;;;;;14.67;7.70;;;;;;;15.34;68.65;101479.63;5041484;28;20471;-75
2022/06/13 00:08:28;;;;;;;12.63;7.50;;;;;;;15.58;68.20;101481.41;5041484;28;20516;-75
2022/06/13 00:10:53;;;;;;;16.23;7.37;;;;;;;15.53;68.28;101474.41;5041954;28;20414;-75
2022/06/13 00:13:18;;;;;;;19.10;9.60;;;;;;;15.29;68.82;101478.75;5041264;28;20170;-74
2022/06/13 00:15:44;;;;;;;15.57;7.40;;;;;;;15.37;68.89;101474.41;5041266;28;20253;-77
2022/06/13 00:18:09;;;;;;;14.47;8.13;;;;;;;15.31;69.32;101475.25;5041330;28;20484;-76
2022/06/13 00:20:35;;;;;;;17.47;7.70;;;;;;;15.22;69.06;101470.00;5041273;28;20253;-76
2022/06/13 00:23:00;;;;;;;12.57;8.00;;;;;;;15.12;69.55;101461.19;5041598;28;20181;-77
2022/06/13 00:25:26;;;;;;;13.70;7.63;;;;;;;15.47;68.61;101468.25;5041043;28;20293;-75
2022/06/13 00:27:51;;;;;;;12.00;7.50;;;;;;;15.38;68.90;101455.09;5041040;28;20559;-75
2022/06/13 00:30:17;;;;;;;13.10;8.60;;;;;;;15.55;68.54;101449.88;5041811;28;20170;-75
2022/06/13 00:32:42;;;;;;;14.23;7.30;;;;;;;15.27;68.94;101452.47;5040912;28;20178;-76
2022/06/13 00:35:08;;;;;;;15.73;8.00;;;;;;;15.35;69.03;101456.88;5040991;28;20188;-75
2022/06/13 00:37:34;;;;;;;16.57;7.53;;;;;;;15.56;68.45;101449.00;5041347;28;20433;-75
2022/06/13 00:39:59;;;;;;;13.27;7.40;;;;;;;15.60;67.99;101452.50;5040783;28;20426;-75
2022/06/13 00:42:26;;;;;;;18.17;7.50;;;;;;;15.69;67.77;101455.13;5040718;28;20174;-75
2022/06/13 00:45:22;;;;;;;11.73;6.87;;;;;;;15.42;68.66;101454.22;5041234;28;20437;-75
2022/06/13 00:47:53;;;;;;;13.73;8.03;;;;;;;15.69;nan;101447.25;5035614;28;20575;-76
2022/06/13 00:50:29;;;;;;;18.70;8.20;;;;;;;16.01;nan;101446.38;5040952;28;20445;-75
2022/06/13 00:53:14;;;;;;;22.17;8.93;;;;;;;15.83;nan;101442.91;5041217;28;20432;-74
2022/06/13 00:55:54;;;;;;;18.53;8.53;;;;;;;15.78;nan;101439.34;5040383;28;20796;-75
2022/06/13 00:58:20;;;;;;;12.93;7.40;;;;;;;15.81;nan;101443.78;5040653;28;20766;-75
2022/06/13 01:00:49;;;;;;;15.10;7.03;;;;;;;15.95;nan;101447.28;5040452;28;20387;-75
2022/06/13 01:03:15;;;;;;;12.53;7.43;;;;;;;15.77;nan;101453.38;5039737;28;20417;-74
2022/06/13 01:05:44;;;;;;;17.50;8.37;;;;;;;15.87;nan;101443.78;5040519;28;20474;-73
2022/06/13 01:08:10;;;;;;;17.00;7.80;;;;;;;15.91;nan;101452.53;5023469;28;20166;-74
2022/06/13 01:13:43;;;;;;;18.73;8.57;;;;;;;15.60;nan;101448.13;5039919;28;20427;-75
2022/06/13 01:16:30;;;;;;;14.10;8.00;;;;;;;15.64;nan;101451.63;5039712;28;20391;-74
2022/06/13 01:19:33;;;;;;;16.83;8.43;;;;;;;15.80;nan;101453.44;5039247;28;20486;-75
2022/06/13 01:22:17;;;;;;;17.30;8.73;;;;;;;15.36;nan;101456.88;5040165;28;20821;-74
2022/06/13 01:24:54;;;;;;;19.33;8.83;;;;;;;15.49;nan;101449.84;5040468;28;20416;-77
2022/06/13 01:27:53;;;;;;;15.80;7.67;;;;;;;15.25;nan;101442.81;5040315;28;20833;-77
2022/06/13 01:30:32;;;;;;;14.53;8.40;;;;;;;15.37;nan;101458.63;5040195;28;20409;-78
2022/06/13 01:33:24;;;;;;;12.33;7.97;;;;;;;15.00;nan;101448.03;5039227;28;20405;-76
2022/06/13 01:36:16;;;;;;;17.43;9.03;;;;;;;15.31;nan;101448.97;5039983;28;20390;-75
2022/06/13 01:39:26;;;;;;;13.20;8.07;;;;;;;15.48;nan;101446.38;5029752;28;20468;-76
2022/06/13 01:41:57;;;;;;;14.57;7.63;;;;;;;15.41;nan;101447.25;5035219;28;20384;-76
2022/06/13 01:44:28;;;;;;;15.53;7.87;;;;;;;15.36;nan;101445.47;5039737;28;20459;-77
2022/06/13 01:47:28;;;;;;;18.90;7.43;;;;;;;15.44;nan;101436.72;5038946;28;20467;-72
2022/06/13 01:50:42;;;;;;;14.73;7.80;;;;;;;15.42;nan;101435.84;5035344;28;20466;-73
2022/06/13 01:53:19;;;;;;;20.73;9.40;;;;;;;15.06;nan;101431.41;5031252;28;20413;-71
2022/06/13 01:56:00;;;;;;;15.23;8.40;;;;;;;15.03;nan;101432.28;5039430;28;20383;-72
2022/06/13 01:58:32;;;;;;;15.47;8.40;;;;;;;14.92;nan;101428.75;5038491;28;20547;-72
2022/06/13 02:01:08;;;;;;;17.90;9.63;;;;;;;15.19;nan;101424.44;5039492;28;20417;-74
2022/06/13 02:03:39;;;;;;;20.40;9.97;;;;;;;15.01;nan;101422.69;5038689;28;20395;-74
2022/06/13 02:06:09;;;;;;;13.00;8.37;;;;;;;14.98;nan;101423.53;5038651;28;20421;-73
2022/06/13 02:08:38;;;;;;;16.33;9.20;;;;;;;15.05;nan;101420.03;5038621;28;20395;-75
2022/06/13 02:11:13;;;;;;;15.93;9.00;;;;;;;14.98;nan;101424.41;5038696;28;20398;-76
2022/06/13 02:13:44;;;;;;;16.43;8.33;;;;;;;15.21;nan;101422.69;5038545;28;20428;-76
2022/06/13 02:16:23;;;;;;;19.87;9.80;;;;;;;15.32;nan;101415.72;5022056;28;20421;-77
2022/06/13 02:18:55;;;;;;;20.93;9.57;;;;;;;15.03;nan;101416.53;5038322;28;20508;-77
2022/06/13 02:21:21;;;;;;;15.10;9.10;;;;;;;15.20;nan;101415.69;5038348;28;20511;-77
2022/06/13 02:23:49;;;;;;;20.73;9.40;;;;;;;14.97;nan;101416.53;5038414;28;20487;-77
2022/06/13 02:26:19;;;;;;;16.27;9.73;;;;;;;15.08;nan;101420.03;5039552;28;20437;-77
2022/06/13 02:28:58;;;;;;;21.57;9.87;;;;;;;15.19;nan;101421.81;5038283;28;20651;-78
2022/06/13 02:31:55;;;;;;;22.73;10.00;;;;;;;15.04;nan;101422.66;5021907;28;20438;-78
2022/06/13 02:34:29;;;;;;;21.20;9.60;;;;;;;15.13;nan;101428.81;5038486;28;20666;-78
2022/06/13 02:37:11;;;;;;;18.40;9.33;;;;;;;14.86;nan;101421.75;5038180;28;20439;-78
2022/06/13 02:40:06;;;;;;;16.40;9.77;;;;;;;14.93;nan;101430.53;5037931;28;20480;-78
2022/06/13 02:42:55;;;;;;;15.50;9.87;;;;;;;14.81;nan;101431.34;5038524;28;20449;-73
2022/06/13 02:45:39;;;;;;;17.13;9.83;;;;;;;14.97;nan;101427.03;5038092;28;20467;-75
2022/06/13 02:48:15;;;;;;;15.60;8.73;;;;;;;14.68;nan;101427.81;5038667;28;20782;-73
2022/06/13 02:50:58;;;;;;;17.53;9.13;;;;;;;14.98;nan;101421.78;5038109;28;20537;-75
2022/06/13 02:53:43;;;;;;;26.83;10.93;;;;;;;14.89;nan;101418.25;5037889;28;20421;-76
2022/06/13 02:59:55;;;;;;;13.27;9.57;;;;;;;15.20;nan;101413.94;5038141;28;20475;-77
2022/06/13 03:02:27;;;;;;;15.43;9.40;;;;;;;15.01;nan;101412.16;5038402;28;20459;-76
2022/06/13 03:05:40;;;;;;;17.40;9.53;;;;;;;15.06;nan;101410.41;5037865;28;20417;-76
2022/06/13 03:08:21;;;;;;;15.97;9.30;;;;;;;15.07;nan;101399.94;5037578;28;20432;-75
2022/06/13 03:11:05;;;;;;;18.13;10.17;;;;;;;15.10;nan;101396.41;5037458;28;20423;-75
2022/06/13 03:13:40;;;;;;;18.53;9.03;;;;;;;14.99;nan;101384.16;5038151;28;20380;-77
2022/06/13 03:16:14;;;;;;;16.67;9.73;;;;;;;15.03;nan;101371.88;5038179;28;20592;-77
2022/06/13 03:18:47;;;;;;;17.10;9.67;;;;;;;15.22;nan;101370.19;5037899;28;20471;-74
2022/06/13 03:21:15;;;;;;;13.73;9.13;;;;;;;15.14;nan;101374.53;5037645;28;20415;-76
2022/06/13 03:23:47;;;;;;;21.00;9.70;;;;;;;14.96;nan;101378.91;5037332;28;20522;-75
2022/06/13 03:26:34;;;;;;;15.03;8.70;;;;;;;15.35;nan;101388.56;5036788;28;20417;-75
2022/06/13 03:29:10;;;;;;;15.60;9.03;;;;;;;14.85;nan;101395.50;5036102;28;20824;-75
2022/06/13 03:31:43;;;;;;;19.10;10.83;;;;;;;15.01;nan;101397.28;5037720;28;20431;-76
2022/06/13 03:34:17;;;;;;;18.80;9.60;;;;;;;15.15;nan;101398.19;5037322;28;20445;-75
2022/06/13 03:37:29;;;;;;;14.67;9.73;;;;;;;15.24;nan;101399.94;5038109;28;20402;-76
2022/06/13 03:40:04;;;;;;;14.47;8.57;;;;;;;15.20;nan;101411.31;5033339;28;20511;-75
2022/06/13 03:42:45;;;;;;;16.17;10.00;;;;;;;14.96;nan;101415.66;5037947;28;20379;-76
2022/06/13 03:45:18;;;;;;;19.80;9.20;;;;;;;15.13;nan;101407.81;5037370;28;20431;-76
2022/06/13 03:47:48;;;;;;;10.90;8.07;;;;;;;15.07;nan;101410.44;5037989;28;20409;-76
2022/06/13 03:50:22;;;;;;;17.00;9.37;;;;;;;15.21;nan;101409.53;5037897;28;20391;-76
2022/06/13 03:52:52;;;;;;;14.27;8.40;;;;;;;15.01;nan;101402.53;5037767;28;20780;-75
2022/06/13 03:55:21;;;;;;;16.80;9.37;;;;;;;15.37;nan;101395.56;5037852;28;20391;-75
2022/06/13 03:58:07;;;;;;;17.53;9.70;;;;;;;15.22;nan;101398.19;5037010;28;20503;-75
2022/06/13 04:00:39;;;;;;;15.27;9.33;;;;;;;15.15;nan;101406.06;5037103;28;20395;-75
2022/06/13 04:03:05;;;;;;;19.23;9.03;;;;;;;15.12;nan;101408.66;5037024;28;20483;-75
2022/06/13 04:05:49;;;;;;;16.07;9.30;;;;;;;14.92;nan;101403.38;5037028;28;20399;-74
2022/06/13 04:08:14;;;;;;;18.80;9.33;;;;;;;15.24;nan;101410.44;5037778;28;20725;-75
2022/06/13 04:11:09;;;;;;;13.97;8.87;;;;;;;14.80;nan;101409.50;5037771;28;20395;-75
2022/06/13 04:13:58;;;;;;;16.53;9.00;;;;;;;15.46;nan;101400.81;5037639;28;20460;-75
2022/06/13 04:16:27;;;;;;;22.30;8.80;;;;;;;15.60;nan;101405.19;5037499;28;20441;-74
2022/06/13 04:18:58;;;;;;;18.30;8.70;;;;;;;15.65;nan;101403.44;5037356;28;20455;-74
2022/06/13 04:21:58;;;;;;;13.17;8.17;;;;;;;15.43;nan;101406.06;5040022;28;20569;-74
2022/06/13 04:24:42;;;;;;;12.07;9.00;;;;;;;15.75;nan;101412.19;5040084;28;20801;-74
2022/06/13 04:27:15;;;;;;;15.60;8.93;;;;;;;15.80;nan;101414.00;5041033;28;20447;-73
2022/06/13 04:29:50;;;;;;;13.00;9.20;;;;;;;15.51;nan;101411.34;5041372;28;20402;-73
2022/06/13 04:32:20;;;;;;;13.73;8.53;;;;;;;15.35;nan;101407.81;5040480;28;20416;-74
2022/06/13 04:34:48;;;;;;;13.90;8.30;;;;;;;14.97;nan;101413.91;5024163;28;20832;-74
2022/06/13 04:37:14;;;;;;;13.10;7.30;;;;;;;15.70;nan;101412.19;5040367;28;20420;-75
2022/06/13 04:39:41;;;;;;;16.07;8.17;;;;;;;15.73;nan;101409.56;5040271;28;20470;-76
2022/06/13 04:42:07;;;;;;;14.80;8.17;;;;;;;16.23;nan;101409.50;5040938;28;20467;-75
2022/06/13 04:44:34;;;;;;;13.17;7.10;;;;;;;17.75;nan;101413.00;5040126;28;20396;-75
2022/06/13 04:47:00;;;;;;;12.50;7.43;;;;;;;18.18;nan;101402.03;5039122;28;20414;-76
2022/06/13 04:49:53;;;;;;;13.20;7.20;;;;;;;17.08;nan;101411.78;5040311;28;20867;-76
2022/06/13 04:52:30;;;;;;;11.60;7.53;;;;;;;18.91;nan;101403.75;5039855;28;20413;-76
2022/06/13 04:55:06;;;;;;;11.20;7.40;;;;;;;20.19;nan;101400.75;5040794;28;20407;-76
2022/06/13 04:57:32;;;;;;;11.80;6.93;;;;;;;21.07;nan;101392.66;5039998;28;20505;-76
2022/06/13 04:59:57;;;;;;;8.90;6.33;;;;;;;21.73;nan;101388.41;5040879;28;20468;-76
2022/06/13 05:02:36;;;;;;;11.23;6.30;;;;;;;20.78;nan;101395.13;5040012;28;20193;-77
2022/06/13 05:05:02;;;;;;;9.50;7.50;;;;;;;20.32;nan;101396.06;5039937;28;20179;-76
2022/06/13 05:07:28;;;;;;;8.63;6.23;;;;;;;20.98;nan;101391.13;5039476;28;20498;-76
2022/06/13 05:10:02;;;;;;;14.03;7.20;;;;;;;21.69;nan;101386.75;5040363;28;20178;-77
2022/06/13 05:12:39;;;;;;;7.87;5.43;;;;;;;22.03;nan;101389.34;5039228;28;20416;-75
2022/06/13 05:15:08;;;;;;;11.90;6.80;;;;;;;21.63;nan;101382.47;5039113;28;20733;-76
2022/06/13 05:17:39;;;;;;;8.43;6.20;;;;;;;23.10;nan;101386.19;5039373;28;20777;-76
2022/06/13 05:20:10;;;;;;;8.77;5.03;;;;;;;22.64;nan;101380.53;5040277;28;20467;-77
2022/06/13 05:23:15;;;;;;;12.83;6.20;;;;;;;22.72;nan;101385.63;5039900;28;20432;-77
2022/06/13 05:25:44;;;;;;;8.60;5.90;;;;;;;22.03;nan;101383.19;5019836;28;20429;-75
2022/06/13 05:28:19;;;;;;;11.93;6.37;;;;;;;22.21;nan;101376.47;5019343;28;20463;-75
2022/06/13 05:30:47;;;;;;;7.97;6.03;;;;;;;20.94;nan;101386.81;5026576;28;20527;-75
2022/06/13 05:33:14;;;;;;;9.67;6.57;;;;;;;20.10;nan;101383.25;5039222;28;20831;-75
2022/06/13 05:35:43;;;;;;;12.17;6.43;;;;;;;19.64;nan;101392.88;5039061;28;20830;-76
2022/06/13 05:38:17;;;;;;;8.80;6.00;;;;;;;19.18;nan;101394.53;5040208;28;20536;-75
2022/06/13 05:40:43;;;;;;;10.53;5.90;;;;;;;19.42;nan;101392.41;5038271;28;20443;-75
2022/06/13 05:43:10;;;;;;;12.97;6.47;;;;;;;18.85;nan;101390.63;5039315;28;20485;-75
2022/06/13 05:45:37;;;;;;;12.30;6.90;;;;;;;18.97;nan;101394.84;5041883;28;20424;-74
2022/06/13 05:48:03;;;;;;;9.47;6.57;;;;;;;18.88;nan;101387.06;5058105;28;20415;-75
2022/06/13 05:50:32;;;;;;;12.20;6.27;;;;;;;18.89;nan;101388.81;5056617;28;20438;-75
2022/06/13 05:52:58;;;;;;;16.60;6.63;;;;;;;19.35;nan;101390.75;5039196;28;20602;-75
2022/06/13 05:55:23;;;;;;;8.50;5.80;;;;;;;19.44;nan;101390.56;5039219;28;20425;-76
2022/06/13 05:57:49;;;;;;;8.60;6.03;;;;;;;19.01;nan;101397.44;5038762;28;20182;-77
2022/06/13 06:00:30;;;;;;;9.10;6.40;;;;;;;18.63;nan;101397.94;5038952;28;20587;-75
2022/06/13 06:02:55;;;;;;;7.07;5.83;;;;;;;18.66;nan;101403.22;5038445;28;20174;-74
2022/06/13 06:05:21;;;;;;;7.93;5.43;;;;;;;18.54;nan;101400.69;5038767;28;20914;-75
2022/06/13 06:07:46;;;;;;;13.13;6.00;;;;;;;18.67;nan;101394.38;5038652;28;20191;-74
2022/06/13 06:10:32;;;;;;;10.77;6.47;;;;;;;19.14;nan;101392.81;5039188;28;20174;-77
2022/06/13 06:12:57;;;;;;;11.90;5.80;;;;;;;19.12;nan;101399.94;5039162;28;20168;-76
2022/06/13 06:15:22;;;;;;;11.43;6.70;;;;;;;21.80;nan;101389.13;5045497;28;20510;-75
2022/06/13 06:17:48;;;;;;;9.50;5.40;;;;;;;20.99;nan;101390.22;5038734;28;20335;-75
2022/06/13 06:20:19;;;;;;;10.57;6.30;;;;;;;20.58;nan;101391.97;5038936;28;20186;-75
2022/06/13 06:22:44;;;;;;;8.87;5.97;;;;;;;21.03;nan;101398.06;5039286;28;20172;-75
2022/06/13 06:25:10;;;;;;;6.37;5.03;;;;;;;21.20;nan;101395.00;5048437;28;20855;-75
2022/06/13 06:27:35;;;;;;;8.70;5.57;;;;;;;22.11;nan;101393.56;5038879;28;20243;-76
2022/06/13 06:30:01;;;;;;;11.80;5.83;;;;;;;21.23;nan;101401.13;5039258;28;20170;-76
2022/06/13 06:32:26;;;;;;;10.90;5.97;;;;;;;20.08;nan;101393.00;5038749;28;20174;-76
2022/06/13 06:34:51;;;;;;;12.20;5.80;;;;;;;19.63;nan;101403.50;5037663;28;20272;-75
2022/06/13 06:37:17;;;;;;;9.87;6.30;;;;;;;19.49;nan;101404.59;5038994;28;20174;-75
2022/06/13 06:39:42;;;;;;;12.53;5.40;;;;;;;19.27;nan;101405.88;5038333;28;20206;-76
2022/06/13 06:42:09;;;;;;;10.97;6.30;;;;;;;19.93;nan;101404.75;5037996;28;20205;-75
2022/06/13 06:44:34;;;;;;;13.23;6.00;;;;;;;19.84;nan;101413.72;5038304;28;20540;-76
2022/06/13 06:47:00;;;;;;;13.40;6.20;;;;;;;21.05;nan;101408.63;5038596;28;20462;-76
2022/06/13 06:49:25;;;;;;;8.80;5.20;;;;;;;20.96;nan;101404.41;5038452;28;20174;-76
2022/06/13 06:51:51;;;;;;;10.27;6.23;;;;;;;21.19;nan;101398.56;5038507;28;20178;-75
2022/06/13 06:59:53;;;;;;;10.23;5.10;;;;;;;20.96;nan;101406.19;5037619;28;20517;-74
2022/06/13 07:02:23;;;;;;;9.60;6.10;;;;;;;21.08;nan;101405.91;5047163;28;20569;-74
2022/06/13 07:04:50;;;;;;;10.00;5.30;;;;;;;20.63;nan;101411.31;5053404;28;20453;-74
2022/06/13 07:07:15;;;;;;;7.57;5.50;;;;;;;21.07;nan;101417.41;5045598;28;20699;-74
2022/06/13 07:09:41;;;;;;;14.00;5.80;;;;;;;20.32;nan;101417.22;5047334;28;20472;-75
2022/06/13 07:12:06;;;;;;;6.70;5.27;;;;;;;19.56;nan;101409.81;5037728;28;20182;-75
2022/06/13 07:14:34;;;;;;;8.27;5.40;;;;;;;19.04;nan;101415.03;5035772;28;20178;-75
2022/06/13 07:17:01;;;;;;;10.80;5.70;;;;;;;19.18;nan;101405.09;5043378;28;20304;-74
2022/06/13 07:19:28;;;;;;;8.03;5.30;;;;;;;19.52;nan;101415.16;5047302;28;20471;-74
2022/06/13 07:21:53;;;;;;;13.63;6.73;;;;;;;19.06;nan;101412.34;5050923;28;20428;-74
2022/06/13 07:24:20;;;;;;;10.33;5.60;;;;;;;18.51;nan;101420.13;5054581;28;20472;-75
2022/06/13 07:26:46;;;;;;;13.70;6.47;;;;;;;18.11;nan;101429.34;5041369;28;20169;-74
2022/06/13 07:29:11;;;;;;;10.90;6.20;;;;;;;18.63;nan;101421.72;5049591;28;20475;-75
2022/06/13 07:31:41;;;;;;;9.27;5.77;;;;;;;19.00;nan;101418.59;5036560;28;20273;-77
2022/06/13 07:34:21;;;;;;;11.30;6.77;;;;;;;20.44;nan;101422.28;5043748;28;20182;-74
2022/06/13 07:36:48;;;;;;;8.97;5.50;;;;;;;20.71;nan;101417.34;5025105;28;20399;-76
2022/06/13 07:39:13;;;;;;;10.53;5.93;;;;;;;20.22;nan;101410.41;5054346;28;20476;-75
2022/06/13 07:41:39;;;;;;;9.80;6.00;;;;;;;21.60;nan;101416.19;5044457;28;20436;-74
2022/06/13 07:44:06;;;;;;;9.90;5.90;;;;;;;20.32;nan;101419.88;5026791;28;20507;-75
2022/06/13 07:46:32;;;;;;;5.63;4.43;;;;;;;18.71;nan;101427.75;5035490;28;20475;-72
2022/06/13 07:48:58;;;;;;;8.17;4.53;;;;;;;18.82;nan;101417.94;5053142;28;20506;-71
2022/06/13 07:51:24;;;;;;;5.77;4.80;;;;;;;18.14;nan;101421.44;5036354;28;20440;-75
2022/06/13 07:53:50;;;;;;;6.20;3.40;;;;;;;17.64;nan;101431.56;5033719;28;20464;-76
2022/06/13 07:56:18;;;;;;;6.23;3.50;;;;;;;17.32;nan;101442.34;5039544;28;20489;-77
2022/06/13 07:58:45;;;;;;;3.90;3.27;;;;;;;17.20;nan;101450.31;5057016;28;20217;-76
2022/06/13 08:01:11;;;;;;;5.73;3.20;;;;;;;17.01;nan;101445.19;5043505;28;20411;-76
2022/06/13 08:03:36;;;;;;;6.90;5.87;;;;;;;17.15;nan;101445.94;5051639;28;20417;-78
2022/06/13 08:06:03;;;;;;;7.80;4.23;;;;;;;16.84;nan;101461.03;5047026;28;20456;-78
2022/06/13 08:08:29;;;;;;;7.03;4.00;;;;;;;16.90;nan;101487.38;5053916;28;20200;-79
2022/06/13 08:10:55;;;;;;;8.60;3.90;;;;;;;16.53;nan;101494.50;5055462;28;20424;-80
2022/06/13 08:13:22;;;;;;;9.73;3.70;;;;;;;15.86;nan;101473.56;5042640;28;20190;-76
2022/06/13 08:15:48;;;;;;;5.27;3.77;;;;;;;15.90;nan;101483.22;5047894;28;20432;-78
2022/06/13 08:18:13;;;;;;;5.63;3.73;;;;;;;16.03;nan;101470.03;5042693;28;20897;-77
2022/06/13 08:20:41;;;;;;;5.07;4.03;;;;;;;16.04;nan;101477.94;5041328;28;20402;-78
2022/06/13 08:23:08;;;;;;;5.27;4.40;;;;;;;16.20;nan;101488.44;5029716;28;20178;-78
2022/06/13 08:25:35;;;;;;;6.27;4.27;;;;;;;15.83;nan;101503.38;5040993;28;20411;-75
2022/06/13 08:28:01;;;;;;;9.90;4.80;;;;;;;15.60;nan;101505.06;5040824;28;20802;-76
2022/06/13 08:30:33;;;;;;;5.67;4.07;;;;;;;15.91;nan;101500.75;5040023;28;20413;-76
2022/06/13 08:32:58;;;;;;;8.60;4.40;;;;;;;15.92;nan;101489.31;5039090;28;20181;-78
2022/06/13 08:35:24;;;;;;;6.70;4.40;;;;;;;15.95;nan;101484.09;5039802;28;20424;-76
2022/06/13 08:37:49;;;;;;;6.50;4.13;;;;;;;15.54;nan;101476.16;5025484;28;20216;-75
2022/06/13 08:40:14;;;;;;;7.53;3.80;;;;;;;16.35;nan;101479.66;5039102;28;20218;-75
2022/06/13 08:43:01;;;;;;;5.83;4.37;;;;;;;17.23;nan;101480.16;5039601;28;20494;-77
2022/06/13 08:45:37;;;;;;;4.80;3.60;;;;;;;20.68;nan;101465.97;5039744;28;20185;-76
2022/06/13 08:48:18;;;;;;;5.17;3.37;;;;;;;22.19;nan;101466.81;5020115;28;20402;-77
2022/06/13 08:50:50;;;;;;;4.67;3.13;;;;;;;22.57;nan;101464.03;5054437;28;20424;-74
2022/06/13 08:53:20;;;;;;;4.53;3.00;;;;;;;21.81;nan;101463.41;5039839;28;20421;-73
2022/06/13 08:55:49;;;;;;;4.70;2.97;;;;;;;21.66;nan;101469.06;5072824;28;20456;-73
2022/06/13 08:58:24;;;;;;;5.83;3.30;;;;;;;21.50;nan;101472.09;5034683;28;20461;-74
2022/06/13 09:01:14;;;;;;;4.73;3.20;;;;;;;20.95;nan;101481.31;5038150;28;20466;-74
2022/06/13 09:03:45;;;;;;;5.77;3.57;;;;;;;21.48;nan;101470.38;5040401;28;20397;-73
2022/06/13 09:06:49;;;;;;;2.93;2.73;;;;;;;23.31;nan;101467.13;5040446;28;20424;-74
2022/06/13 09:09:21;;;;;;;3.10;2.73;;;;;;;24.34;nan;101453.88;5041262;28;20844;-74
2022/06/13 09:11:58;;;;;;;3.37;2.80;;;;;;;24.78;nan;101448.69;5039503;28;20453;-76
2022/06/13 09:14:33;;;;;;;2.67;2.40;;;;;;;23.37;nan;101456.28;5039414;28;20715;-76
2022/06/13 09:17:27;;;;;;;6.67;2.70;;;;;;;22.98;nan;101443.28;5039425;28;21815;-75
2022/06/13 09:20:13;;;;;;;3.03;2.70;;;;;;;23.38;nan;101443.81;5038257;28;20464;-77
2022/06/13 09:22:53;;;;;;;2.77;2.43;;;;;;;23.78;nan;101444.28;5018965;28;20457;-77
2022/06/13 09:25:37;;;;;;;3.67;2.73;;;;;;;23.82;nan;101443.25;5019206;28;20483;-77
2022/06/13 09:28:10;;;;;;;2.60;2.40;;;;;;;24.35;nan;101450.28;5019827;28;20549;-73
2022/06/13 09:30:40;;;;;;;4.00;2.80;;;;;;;24.00;nan;101455.09;5020018;28;20406;-73
2022/06/13 09:33:12;;;;;;;2.63;2.40;;;;;;;24.31;nan;101451.31;5019892;28;20507;-74
2022/06/13 09:35:46;;;;;;;3.30;2.67;;;;;;;25.16;nan;101450.78;5019770;28;20429;-75
2022/06/13 09:38:22;;;;;;;2.43;2.23;;;;;;;24.12;nan;101454.66;5019819;28;20455;-74
2022/06/13 09:41:02;;;;;;;3.07;2.60;;;;;;;25.20;nan;101447.91;5019873;28;20414;-73
2022/06/13 09:43:49;;;;;;;3.13;2.43;;;;;;;25.38;nan;101456.13;5019556;28;20575;-74
2022/06/13 09:46:17;;;;;;;2.30;2.10;;;;;;;24.80;nan;101456.63;5019736;28;20394;-74
2022/06/13 09:49:06;;;;;;;4.73;2.37;;;;;;;24.96;nan;101448.91;5033946;28;20425;-75
2022/06/13 09:51:46;;;;;;;2.80;2.60;;;;;;;24.83;nan;101452.06;5038204;28;20427;-76
2022/06/13 09:54:19;;;;;;;2.73;2.40;;;;;;;26.21;nan;101455.28;5038141;28;20436;-74
2022/06/13 09:56:57;;;;;;;4.43;2.57;;;;;;;25.32;nan;101462.56;5038429;28;20499;-71
2022/06/13 09:59:33;;;;;;;2.20;2.00;;;;;;;25.34;nan;101467.88;5032443;28;20513;-76
2022/06/13 10:02:09;;;;;;;3.13;2.57;;;;;;;26.19;nan;101457.16;5037247;28;20453;-77
2022/06/13 10:05:17;;;;;;;3.87;2.43;;;;;;;26.29;nan;101454.94;5048495;28;20573;-76
2022/06/13 10:08:18;;;;;;;2.20;2.00;;;;;;;26.38;nan;101459.00;5020287;28;20424;-78
2022/06/13 10:10:54;;;;;;;2.60;2.30;;;;;;;25.30;nan;101460.88;5014900;28;20453;-77
2022/06/13 10:13:42;;;;;;;1.83;1.67;;;;;;;25.64;nan;101457.72;5025995;28;20441;-74
2022/06/13 10:16:11;;;;;;;3.00;2.20;;;;;;;25.37;nan;101457.94;5028732;28;20431;-75
2022/06/13 10:18:57;;;;;;;2.23;1.90;;;;;;;24.35;nan;101463.59;5036784;28;20464;-76
2022/06/13 10:21:43;;;;;;;2.20;2.00;;;;;;;25.10;nan;101454.56;5036234;28;20437;-73
2022/06/13 10:24:36;;;;;;;2.57;2.30;;;;;;;26.63;nan;101455.19;5037920;28;20417;-73
2022/06/13 10:27:30;;;;;;;2.43;2.20;;;;;;;25.44;nan;101458.56;5034531;28;20418;-73
2022/06/13 10:30:03;;;;;;;2.47;2.20;;;;;;;26.23;nan;101450.72;5035787;28;20459;-76
2022/06/13 10:32:44;;;;;;;2.87;2.10;;;;;;;27.30;nan;101442.22;5037572;28;20491;-75
2022/06/13 10:35:28;;;;;;;2.47;2.27;;;;;;;26.23;nan;101452.53;5029434;28;20462;-72
2022/06/13 10:38:24;;;;;;;2.80;2.00;;;;;;;26.60;nan;101440.16;5043750;28;20420;-78
2022/06/13 10:40:50;;;;;;;3.73;2.10;;;;;;;27.18;nan;101443.69;5056970;28;20436;-77
2022/06/13 10:43:16;;;;;;;3.43;2.40;;;;;;;24.57;nan;101455.66;5053673;28;20703;-75
2022/06/13 10:45:42;;;;;;;2.50;2.30;;;;;;;23.64;nan;101458.09;5057634;28;20503;-74
2022/06/13 10:48:30;;;;;;;4.47;2.47;;;;;;;22.06;nan;101462.75;5042408;28;20244;-76
2022/06/13 10:50:58;;;;;;;2.80;2.40;;;;;;;21.49;nan;101457.06;5037491;28;20438;-76
2022/06/13 10:53:41;;;;;;;3.80;3.00;;;;;;;22.36;nan;101462.84;5034334;28;20528;-77
2022/06/13 10:56:10;;;;;;;3.07;2.40;;;;;;;23.06;nan;101459.00;5037468;28;20441;-78
2022/06/13 10:58:44;;;;;;;3.00;2.40;;;;;;;24.41;nan;101452.75;5038104;28;20741;-77
2022/06/13 11:01:16;;;;;;;2.70;2.50;;;;;;;25.04;nan;101442.31;5021007;28;20447;-78
2022/06/13 11:04:02;;;;;;;3.87;2.57;;;;;;;24.57;nan;101449.47;5037947;28;20511;-77
2022/06/13 11:06:46;;;;;;;2.70;2.20;;;;;;;23.83;nan;101443.22;5037888;28;20413;-77
2022/06/13 11:09:41;;;;;;;2.33;2.13;;;;;;;23.72;nan;101450.72;5036939;28;20440;-78
2022/06/13 11:12:26;;;;;;;2.63;2.20;;;;;;;23.06;nan;101456.34;5037292;28;20491;-74
2022/06/13 11:23:12;;;;;;;3.60;2.30;;;;;;;22.33;nan;101484.16;5044346;28;20844;-73
2022/06/13 11:25:39;;;;;;;5.60;3.30;;;;;;;20.98;nan;101484.75;5037223;28;20425;-75
2022/06/13 11:28:07;;;;;;;4.33;3.10;;;;;;;20.86;nan;101483.28;5036713;28;20174;-75
2022/06/13 11:30:35;;;;;;;5.37;3.00;;;;;;;20.66;nan;101491.59;5036355;28;20424;-76
2022/06/13 11:33:06;;;;;;;3.03;2.40;;;;;;;20.17;nan;101488.13;5037985;28;20421;-74
2022/06/13 11:35:44;;;;;;;3.87;2.60;;;;;;;20.46;nan;101493.78;5037107;28;20693;-74
2022/06/13 11:38:20;;;;;;;9.17;2.90;;;;;;;20.05;nan;101500.72;5036609;28;20436;-75
2022/06/13 11:41:07;;;;;;;3.93;2.93;;;;;;;19.28;nan;101506.31;5037592;28;20734;-74
2022/06/13 11:43:45;;;;;;;5.30;3.00;;;;;;;18.95;nan;101503.22;5030131;28;20448;-73
2022/06/13 11:46:23;;;;;;;3.23;2.50;;;;;;;19.05;nan;101509.28;5035921;28;20433;-73
2022/06/13 11:48:49;;;;;;;3.90;2.63;;;;;;;19.18;nan;101516.13;5037363;28;20478;-74
2022/06/13 11:51:21;;;;;;;3.17;2.57;;;;;;;20.35;nan;101507.22;5037743;28;20495;-74
2022/06/13 11:53:46;;;;;;;4.83;3.10;;;;;;;20.86;nan;101498.28;5036077;28;20520;-76
2022/06/13 11:56:24;;;;;;;3.33;2.70;;;;;;;21.26;nan;101497.41;5020309;28;20445;-75
2022/06/13 11:58:51;;;;;;;3.10;2.60;;;;;;;21.75;nan;101498.03;5039466;28;20213;-76
2022/06/13 12:01:19;;;;;;;4.07;2.70;;;;;;;22.07;nan;101479.53;5029443;28;20438;-78
2022/06/13 12:03:58;;;;;;;3.80;3.50;;;;;;;21.88;nan;101485.34;5034933;28;20431;-78
2022/06/13 12:06:23;;;;;;;4.03;2.40;;;;;;;;;;5030148;28;20718;-78
2022/06/13 12:08:51;;;;;;;3.20;2.63;;;;;;;21.08;nan;101492.50;5036240;28;20413;-76
2022/06/13 12:11:17;;;;;;;3.43;2.53;;;;;;;20.32;nan;101496.69;5053020;28;20294;-77
2022/06/13 12:13:45;;;;;;;4.13;2.63;;;;;;;19.75;nan;101495.88;5053100;28;20512;-76
2022/06/13 12:16:34;;;;;;;2.97;2.67;;;;;;;20.29;nan;101502.03;5036226;28;20459;-77
2022/06/13 12:19:30;;;;;;;6.73;2.70;;;;;;;21.42;nan;101497.94;5035234;28;20473;-77
2022/06/13 12:22:02;;;;;;;4.43;2.90;;;;;;;21.99;nan;101482.41;5036571;28;20431;-78
2022/06/13 12:24:55;;;;;;;3.03;2.40;;;;;;;22.40;nan;101483.09;5036228;28;20445;-77
2022/06/13 12:28:09;;;;;;;3.73;2.93;;;;;;;21.92;nan;101491.44;5037391;28;20508;-77
2022/06/13 12:30:49;;;;;;;3.40;3.10;;;;;;;20.79;nan;101494.88;5017115;28;20410;-76